sensor_id;sensor_type;location;lat;lon;timestamp;temperature;humidity
27870;DHT22;15225;50.730;4.244;2023-04-06T18:40:45;11.00;84.50
27870;DHT22;15225;50.730;4.244;2023-04-06T18:43:11;10.50;87.70
27870;DHT22;15225;50.730;4.244;2023-04-06T18:45:37;10.80;90.00
27870;DHT22;15225;50.730;4.244;2023-04-06T18:48:03;11.20;80.60
27870;DHT22;15225;50.730;4.244;2023-04-06T18:50:29;11.70;69.10
27870;DHT22;15225;50.730;4.244;2023-04-06T18:52:55;12.20;47.80
27870;DHT22;15225;50.730;4.244;2023-04-06T18:55:21;12.60;25.60
27870;DHT22;15225;50.730;4.244;2023-04-06T18:57:46;13.00;1.00
27870;DHT22;15225;50.730;4.244;2023-04-06T19:00:14;13.30;1.00
27870;DHT22;15225;50.730;4.244;2023-04-06T19:02:41;13.50;1.00
27870;DHT22;15225;50.730;4.244;2023-04-06T19:05:09;13.70;1.00
27870;DHT22;15225;50.730;4.244;2023-04-06T19:07:35;13.80;1.00
27870;DHT22;15225;50.730;4.244;2023-04-06T19:10:02;14.00;1.00
27870;DHT22;15225;50.730;4.244;2023-04-06T19:12:28;14.00;1.00
27870;DHT22;15225;50.730;4.244;2023-04-06T19:14:54;14.20;99.90
27870;DHT22;15225;50.730;4.244;2023-04-06T19:17:19;14.30;99.90
27870;DHT22;15225;50.730;4.244;2023-04-06T19:19:45;14.40;99.90
27870;DHT22;15225;50.730;4.244;2023-04-06T19:22:11;14.30;99.90
27870;DHT22;15225;50.730;4.244;2023-04-06T19:24:41;14.30;99.90
27870;DHT22;15225;50.730;4.244;2023-04-06T19:27:08;14.30;99.90
27870;DHT22;15225;50.730;4.244;2023-04-06T19:29:34;14.30;99.90
27870;DHT22;15225;50.730;4.244;2023-04-06T19:32:00;14.30;99.90
27870;DHT22;15225;50.730;4.244;2023-04-06T19:34:26;14.30;99.90
27870;DHT22;15225;50.730;4.244;2023-04-06T19:36:53;14.30;99.90
27870;DHT22;15225;50.730;4.244;2023-04-06T19:39:19;14.40;99.90
27870;DHT22;15225;50.730;4.244;2023-04-06T19:41:45;14.40;99.90
27870;DHT22;15225;50.730;4.244;2023-04-06T19:44:11;14.20;99.90
27870;DHT22;15225;50.730;4.244;2023-04-06T19:46:36;14.00;99.90
27870;DHT22;15225;50.730;4.244;2023-04-06T19:49:02;14.00;99.90
27870;DHT22;15225;50.730;4.244;2023-04-06T19:51:32;13.80;99.90
27870;DHT22;15225;50.730;4.244;2023-04-06T19:53:59;13.60;99.90
27870;DHT22;15225;50.730;4.244;2023-04-06T19:56:24;13.50;99.90
27870;DHT22;15225;50.730;4.244;2023-04-06T19:58:50;13.40;99.90
27870;DHT22;15225;50.730;4.244;2023-04-06T20:01:16;13.50;99.90
27870;DHT22;15225;50.730;4.244;2023-04-06T20:03:42;13.50;99.90
27870;DHT22;15225;50.730;4.244;2023-04-06T20:06:07;13.30;99.90
27870;DHT22;15225;50.730;4.244;2023-04-06T20:08:33;13.30;99.90
27870;DHT22;15225;50.730;4.244;2023-04-06T20:11:05;13.20;99.90
27870;DHT22;15225;50.730;4.244;2023-04-06T20:13:35;13.10;99.90
27870;DHT22;15225;50.730;4.244;2023-04-06T20:16:02;13.00;99.90
